Photometre #642[NE_1.2] Dushanbe AOT

File : 20200928_642.hum

28/09/2020,02:04:20,TEMP=11.9,BA=5.20,STAT.A=4.0,ExtBa=13.56
28/09/2020,02:07:39,TEMP=12.2,BA=5.20,STAT.A=4.0,ExtBa=13.56
28/09/2020,02:11:31,TEMP=12.4,BA=5.24,STAT.A=4.0,ExtBa=13.56
28/09/2020,02:16:07,TEMP=12.6,BA=5.24,STAT.A=4.0,ExtBa=13.56
28/09/2020,02:21:39,TEMP=12.9,BA=5.28,STAT.A=4.5,ExtBa=13.56
28/09/2020,02:28:29,TEMP=13.4,BA=5.28,STAT.A=4.5,ExtBa=13.56
28/09/2020,02:37:07,TEMP=14.1,BA=5.16,STAT.B=4.5,ExtBa=13.56
28/09/2020,02:46:16,TEMP=15.1,BA=5.16,STAT.A=4.5,ExtBa=13.57
28/09/2020,02:48:21,TEMP=15.5,BA=5.16,STAT.A=4.5,ExtBa=13.57
28/09/2020,02:51:05,TEMP=15.6,BA=5.24,STAT.A=4.5,ExtBa=13.57
28/09/2020,02:57:01,TEMP=15.9,BA=5.24,STAT.A=4.5,ExtBa=13.60
28/09/2020,03:03:49,TEMP=16.5,BA=5.40,STAT.C=4.5,ExtBa=13.64
28/09/2020,03:18:25,TEMP=17.6,BA=5.16,STAT.A=4.5,ExtBa=13.61
28/09/2020,03:21:04,TEMP=17.8,BA=5.24,STAT.A=4.5,ExtBa=13.63
28/09/2020,03:32:15,TEMP=18.2,BA=5.44,STAT.A=5.0,ExtBa=13.87
28/09/2020,03:45:58,TEMP=19.6,BA=5.44,STAT.A=5.0,ExtBa=14.09
28/09/2020,04:03:19,TEMP=21.0,BA=5.40,STAT.B=5.0,ExtBa=14.21
28/09/2020,04:15:33,TEMP=21.1,BA=5.20,STAT.F,ExtBa=13.90
28/09/2020,04:30:31,TEMP=21.5,BA=5.32,STAT.D=5.0,ExtBa=13.79
28/09/2020,04:45:30,TEMP=22.0,BA=5.28,STAT.D=5.0,ExtBa=14.28
28/09/2020,05:00:31,TEMP=23.0,BA=5.36,STAT.D=5.0,ExtBa=14.30
28/09/2020,05:15:33,TEMP=23.6,BA=5.36,STAT.F,ExtBa=14.27
28/09/2020,05:30:32,TEMP=24.1,BA=5.32,STAT.D=5.0,ExtBa=13.83
28/09/2020,05:45:32,TEMP=24.3,BA=5.36,STAT.D=5.5,ExtBa=14.25
28/09/2020,06:00:32,TEMP=25.1,BA=5.36,STAT.D=5.5,ExtBa=14.27
28/09/2020,06:15:33,TEMP=26.5,BA=5.36,STAT.F,ExtBa=14.23
28/09/2020,06:30:55,TEMP=27.4,BA=5.24,STAT.D=5.5,ExtBa=13.79
28/09/2020,06:45:32,TEMP=27.9,BA=5.36,STAT.D=5.5,ExtBa=14.22
28/09/2020,07:00:32,TEMP=28.3,BA=5.36,STAT.D=5.5,ExtBa=14.19
28/09/2020,07:15:34,TEMP=28.6,BA=5.36,STAT.F,ExtBa=14.17
28/09/2020,07:32:33,TEMP=28.5,BA=5.24,STAT.D=5.5,ExtBa=13.80
28/09/2020,07:45:32,TEMP=29.1,BA=5.36,STAT.D=5.5,ExtBa=14.18
28/09/2020,08:00:32,TEMP=29.9,BA=5.36,STAT.D=5.5,ExtBa=14.13
28/09/2020,08:15:33,TEMP=29.8,BA=5.36,STAT.F,ExtBa=14.14
28/09/2020,08:30:32,TEMP=29.6,BA=5.32,STAT.D=5.5,ExtBa=13.86
28/09/2020,08:45:32,TEMP=29.4,BA=5.36,STAT.D=5.5,ExtBa=14.15
28/09/2020,09:00:32,TEMP=30.3,BA=5.36,STAT.D=6.0,ExtBa=14.10
28/09/2020,09:15:33,TEMP=30.2,BA=5.36,STAT.F,ExtBa=13.99
28/09/2020,09:30:31,TEMP=29.4,BA=5.32,STAT.D=5.5,ExtBa=13.66
28/09/2020,09:45:31,TEMP=28.4,BA=5.36,STAT.D=5.5,ExtBa=13.90
28/09/2020,10:00:31,TEMP=27.6,BA=5.36,STAT.D=5.5,ExtBa=13.93
28/09/2020,10:15:33,TEMP=27.2,BA=5.36,STAT.F,ExtBa=13.72
28/09/2020,10:29:20,TEMP=26.8,BA=5.28,STAT.B=5.5,ExtBa=13.58
28/09/2020,10:45:08,TEMP=26.3,BA=5.32,STAT.A=5.5,ExtBa=13.65
28/09/2020,10:58:50,TEMP=25.8,BA=5.36,STAT.A=5.5,ExtBa=13.71
28/09/2020,11:10:00,TEMP=25.5,BA=5.28,STAT.A=5.5,ExtBa=13.74
28/09/2020,11:19:20,TEMP=25.2,BA=5.28,STAT.A=5.5,ExtBa=13.75
28/09/2020,11:27:15,TEMP=25.1,BA=5.28,STAT.C=5.5,ExtBa=13.73
28/09/2020,11:41:18,TEMP=24.8,BA=5.28,STAT.A=5.5,ExtBa=13.55
28/09/2020,11:43:10,TEMP=24.9,BA=5.28,STAT.A=5.0,ExtBa=13.55
28/09/2020,11:45:12,TEMP=24.8,BA=5.28,STAT.A=5.0,ExtBa=13.56
28/09/2020,11:49:49,TEMP=24.3,BA=5.28,STAT.A=5.5,ExtBa=13.57
28/09/2020,11:53:57,TEMP=24.4,BA=5.28,STAT.B=5.5,ExtBa=13.59
28/09/2020,12:02:52,TEMP=24.5,BA=5.28,STAT.A=5.0,ExtBa=13.55
28/09/2020,12:09:23,TEMP=24.0,BA=5.28,STAT.A=5.5,ExtBa=13.56
28/09/2020,12:14:55,TEMP=23.6,BA=5.24,STAT.A=5.5,ExtBa=13.55
28/09/2020,12:19:32,TEMP=23.3,BA=5.24,STAT.A=5.0,ExtBa=13.56
28/09/2020,12:23:24,TEMP=23.0,BA=5.20,STAT.A=5.0,ExtBa=13.56
28/09/2020,12:26:42,TEMP=22.8,BA=5.20,STAT.A=5.0,ExtBa=13.55